createdAt,value
2023-02-11T00:01:45.335Z,41.73
2023-02-11T00:05:07.167Z,41.20
2023-02-11T00:08:28.847Z,37.13
2023-02-11T00:11:50.393Z,37.73
2023-02-11T00:15:14.067Z,40.33
2023-02-11T00:18:36.464Z,44.93
2023-02-11T00:21:58.081Z,41.77
2023-02-11T00:25:19.730Z,64.93
2023-02-11T00:28:41.827Z,42.57
2023-02-11T00:32:05.323Z,39.43
2023-02-11T00:35:26.966Z,36.83
2023-02-11T00:38:50.018Z,36.73
2023-02-11T00:42:14.846Z,35.23
2023-02-11T00:45:36.461Z,36.37
2023-02-11T00:48:58.103Z,32.97
2023-02-11T00:52:22.243Z,30.77
2023-02-11T00:55:46.920Z,32.30
2023-02-11T00:59:09.197Z,31.53
2023-02-11T01:02:30.864Z,31.87
2023-02-11T01:05:56.096Z,32.03
2023-02-11T01:09:17.899Z,29.60
2023-02-11T01:12:42.664Z,30.87
2023-02-11T01:16:07.725Z,31.43
2023-02-11T01:19:29.403Z,30.63
2023-02-11T01:22:51.068Z,32.07
2023-02-11T01:26:15.856Z,32.97
2023-02-11T01:29:37.443Z,33.13
2023-02-11T01:33:01.212Z,31.80
2023-02-11T01:36:22.873Z,32.53
2023-02-11T01:39:49.126Z,31.77
2023-02-11T01:43:12.027Z,32.23
2023-02-11T01:46:35.517Z,32.70
2023-02-11T01:49:59.343Z,33.63
2023-02-11T01:53:40.123Z,31.37
2023-02-11T01:57:21.972Z,31.47
2023-02-11T02:00:44.050Z,32.73
2023-02-11T02:04:07.416Z,34.13
2023-02-11T02:07:36.027Z,34.77
2023-02-11T02:11:00.902Z,31.90
2023-02-11T02:14:22.505Z,33.23
2023-02-11T02:18:07.223Z,31.67
2023-02-11T02:21:58.249Z,33.50
2023-02-11T02:25:48.722Z,32.17
2023-02-11T02:29:10.478Z,34.60
2023-02-11T02:32:56.731Z,32.77
2023-02-11T02:36:40.582Z,32.00
2023-02-11T02:40:09.957Z,34.10
2023-02-11T02:43:32.848Z,32.47
2023-02-11T02:46:59.867Z,34.37
2023-02-11T02:50:30.350Z,33.80
2023-02-11T02:53:57.815Z,34.23
2023-02-11T02:57:28.108Z,34.20
2023-02-11T03:01:08.211Z,33.87
2023-02-11T03:04:35.946Z,32.50
2023-02-11T03:08:01.401Z,35.00
2023-02-11T03:11:24.431Z,33.20
2023-02-11T03:14:51.373Z,34.10
2023-02-11T03:18:17.054Z,40.97
2023-02-11T03:21:42.755Z,37.43
2023-02-11T03:25:04.985Z,33.17
2023-02-11T03:28:35.456Z,34.97
2023-02-11T03:32:16.126Z,33.30
2023-02-11T03:35:56.299Z,33.33
2023-02-11T03:40:02.475Z,35.77
2023-02-11T03:43:38.910Z,34.27
2023-02-11T03:47:02.002Z,34.63
2023-02-11T03:50:28.132Z,35.07
2023-02-11T03:53:52.389Z,34.30
2023-02-11T03:57:13.975Z,33.93
2023-02-11T04:00:39.533Z,35.53
2023-02-11T04:04:01.420Z,33.93
2023-02-11T04:07:23.598Z,34.10
2023-02-11T04:10:52.524Z,33.40
2023-02-11T04:14:14.158Z,32.67
2023-02-11T04:17:38.076Z,34.03
2023-02-11T04:20:59.685Z,32.67
2023-02-11T04:24:23.475Z,35.33
2023-02-11T04:27:45.043Z,36.53
2023-02-11T04:31:12.139Z,42.07
2023-02-11T04:34:36.084Z,34.67
2023-02-11T04:38:00.141Z,35.67
2023-02-11T04:41:23.954Z,34.83
2023-02-11T04:44:45.618Z,34.50
2023-02-11T04:48:07.243Z,35.40
2023-02-11T04:51:28.875Z,35.00
2023-02-11T04:54:52.958Z,34.67
2023-02-11T04:58:14.600Z,35.67
2023-02-11T05:01:36.485Z,33.90
2023-02-11T05:05:00.609Z,34.57
2023-02-11T05:08:27.038Z,34.80
2023-02-11T05:11:48.941Z,33.83
2023-02-11T05:15:10.553Z,44.77
2023-02-11T05:18:32.144Z,33.70
2023-02-11T05:22:02.647Z,34.30
2023-02-11T05:25:27.378Z,34.60
2023-02-11T05:28:51.446Z,32.83
2023-02-11T05:32:15.308Z,34.60
2023-02-11T05:35:39.378Z,32.27
2023-02-11T05:39:04.037Z,31.80
2023-02-11T05:42:25.677Z,33.13
2023-02-11T05:45:50.230Z,33.10
2023-02-11T05:49:12.257Z,31.60
2023-02-11T05:52:33.869Z,33.80
2023-02-11T05:55:55.676Z,32.97
2023-02-11T05:59:19.861Z,32.40
2023-02-11T06:02:43.813Z,31.90
2023-02-11T06:06:10.881Z,33.83
2023-02-11T06:09:32.468Z,36.43
2023-02-11T06:12:56.422Z,34.90
2023-02-11T06:16:20.374Z,34.40
2023-02-11T06:19:42.102Z,35.13
2023-02-11T06:23:03.698Z,33.80
2023-02-11T06:26:25.665Z,33.43
2023-02-11T06:29:50.032Z,35.37
2023-02-11T06:33:11.650Z,33.43
2023-02-11T06:36:36.303Z,33.80
2023-02-11T06:39:57.890Z,32.80
2023-02-11T06:43:21.649Z,35.60
2023-02-11T06:46:45.396Z,33.40
2023-02-11T06:50:11.163Z,33.77
2023-02-11T06:53:41.515Z,35.00
2023-02-11T06:57:03.058Z,35.97
2023-02-11T07:00:24.819Z,85.60
2023-02-11T07:03:46.991Z,38.20
2023-02-11T07:07:08.896Z,34.53
2023-02-11T07:10:30.506Z,34.77
2023-02-11T07:13:54.623Z,34.93
2023-02-11T07:17:19.195Z,34.77
2023-02-11T07:20:43.149Z,35.13
2023-02-11T07:24:11.082Z,33.00
2023-02-11T07:27:33.244Z,33.38
2023-02-11T07:30:57.436Z,32.67
2023-02-11T07:34:19.145Z,32.43
2023-02-11T07:37:43.644Z,32.93
2023-02-11T07:41:07.666Z,33.67
2023-02-11T07:44:29.295Z,35.97
2023-02-11T07:47:50.904Z,37.93
2023-02-11T07:51:17.261Z,39.30
2023-02-11T07:54:38.842Z,37.63
2023-02-11T07:58:03.931Z,41.93
2023-02-11T08:01:28.778Z,39.40
2023-02-11T08:04:50.797Z,36.17
2023-02-11T08:08:12.648Z,36.67
2023-02-11T08:11:34.250Z,41.90
2023-02-11T08:14:56.435Z,39.67
2023-02-11T08:18:20.577Z,39.33
2023-02-11T08:21:44.971Z,41.50
2023-02-11T08:25:09.123Z,39.27
2023-02-11T08:28:30.874Z,38.50
2023-02-11T08:31:52.600Z,38.73
2023-02-11T08:35:17.007Z,35.60
2023-02-11T08:38:41.061Z,37.03
2023-02-11T08:42:02.707Z,35.20
2023-02-11T08:45:27.307Z,34.50
2023-02-11T08:48:48.924Z,35.90
2023-02-11T08:52:10.606Z,35.80
2023-02-11T08:55:32.226Z,36.17
2023-02-11T08:58:54.708Z,34.03
2023-02-11T09:02:21.433Z,36.20
2023-02-11T09:05:47.921Z,34.60
2023-02-11T09:09:13.781Z,39.53
2023-02-11T09:12:40.182Z,42.83
2023-02-11T09:16:05.954Z,34.83
2023-02-11T09:19:29.934Z,35.37
2023-02-11T09:22:51.573Z,31.63
2023-02-11T09:26:32.715Z,30.57
2023-02-11T09:29:54.326Z,29.27
2023-02-11T09:33:18.210Z,29.40
2023-02-11T09:36:43.224Z,27.67
2023-02-11T09:40:08.383Z,28.60
2023-02-11T09:43:46.966Z,21.10
2023-02-11T09:47:35.904Z,20.70
2023-02-11T09:51:04.347Z,20.27
2023-02-11T09:54:35.430Z,19.17
2023-02-11T09:57:58.193Z,20.07
2023-02-11T10:01:41.062Z,19.87
2023-02-11T10:05:32.100Z,20.13
2023-02-11T10:09:07.997Z,20.10
2023-02-11T10:12:38.647Z,19.77
2023-02-11T10:16:22.666Z,21.13
2023-02-11T10:20:11.596Z,21.83
2023-02-11T10:23:40.163Z,21.03
2023-02-11T10:27:08.690Z,20.90
2023-02-11T10:30:40.951Z,20.73
2023-02-11T10:34:13.748Z,21.93
2023-02-11T10:37:35.324Z,22.73
2023-02-11T10:40:56.920Z,23.30
2023-02-11T10:44:24.374Z,22.70
2023-02-11T10:47:46.077Z,24.27
2023-02-11T10:51:25.303Z,23.40
2023-02-11T10:58:25.679Z,22.17
2023-02-11T11:01:51.798Z,23.17
2023-02-11T11:05:22.597Z,22.73
2023-02-11T11:08:49.804Z,22.00
2023-02-11T11:12:31.589Z,22.57
2023-02-11T11:16:13.804Z,20.27
2023-02-11T11:19:39.191Z,20.10
2023-02-11T11:23:22.809Z,21.83
2023-02-11T11:26:54.262Z,19.67
2023-02-11T11:30:17.053Z,19.87
2023-02-11T11:33:45.132Z,19.75
2023-02-11T11:37:28.856Z,19.58
2023-02-11T11:41:14.561Z,21.17
2023-02-11T11:44:38.278Z,19.67
2023-02-11T11:48:19.421Z,18.58
2023-02-11T11:51:43.669Z,17.73
2023-02-11T11:55:20.749Z,19.45
2023-02-11T11:58:44.904Z,18.48
2023-02-11T12:02:40.537Z,19.02
2023-02-11T12:06:23.815Z,18.33
2023-02-11T12:10:24.104Z,18.65
2023-02-11T12:13:57.799Z,18.65
2023-02-11T12:17:25.939Z,18.25
2023-02-11T12:21:09.339Z,16.38
2023-02-11T12:24:52.250Z,16.05
2023-02-11T12:28:35.451Z,15.85
2023-02-11T12:32:36.490Z,15.02
2023-02-11T12:36:22.594Z,15.63
2023-02-11T12:39:50.024Z,15.13
2023-02-11T12:43:24.911Z,14.75
2023-02-11T12:47:27.484Z,14.25
2023-02-11T12:50:59.201Z,14.18
2023-02-11T12:54:32.696Z,15.18
2023-02-11T12:58:00.013Z,14.35
2023-02-11T13:01:27.309Z,15.30
2023-02-11T13:04:59.905Z,15.55
2023-02-11T13:08:51.258Z,12.85
2023-02-11T13:12:32.852Z,13.50
2023-02-11T13:16:07.853Z,12.90
2023-02-11T13:19:40.751Z,12.60
2023-02-11T13:23:19.518Z,12.63
2023-02-11T13:26:57.716Z,12.23
2023-02-11T13:30:28.333Z,12.55
2023-02-11T13:33:50.023Z,12.13
2023-02-11T13:37:37.098Z,11.68
2023-02-11T13:41:06.838Z,11.23
2023-02-11T13:44:28.844Z,11.23
2023-02-11T13:47:59.872Z,11.23
2023-02-11T13:51:44.936Z,10.75
2023-02-11T13:55:22.557Z,14.35
2023-02-11T13:58:51.920Z,12.07
2023-02-11T14:02:55.045Z,11.23
2023-02-11T14:06:38.599Z,12.15
2023-02-11T14:10:02.424Z,11.53
2023-02-11T14:13:31.565Z,11.13
2023-02-11T14:17:02.310Z,11.87
2023-02-11T14:20:43.321Z,11.50
2023-02-11T14:24:05.032Z,11.47
2023-02-11T14:27:41.720Z,11.47
2023-02-11T14:31:10.627Z,12.90
2023-02-11T14:35:09.779Z,15.07
2023-02-11T14:38:52.944Z,11.60
2023-02-11T14:42:25.476Z,12.53
2023-02-11T14:45:52.105Z,11.87
2023-02-11T14:49:36.434Z,12.30
2023-02-11T14:53:01.405Z,12.87
2023-02-11T14:56:27.939Z,11.83
2023-02-11T15:00:05.608Z,12.50
2023-02-11T15:03:32.523Z,12.10
2023-02-11T15:06:55.538Z,12.07
2023-02-11T15:10:39.620Z,12.00
2023-02-11T15:14:11.963Z,12.33
2023-02-11T15:17:36.344Z,12.63
2023-02-11T15:21:00.235Z,12.53
2023-02-11T15:24:30.892Z,12.00
2023-02-11T15:27:57.119Z,12.07
2023-02-11T15:31:23.673Z,12.60
2023-02-11T15:34:46.769Z,12.77
2023-02-11T15:38:12.768Z,12.07
2023-02-11T15:41:37.758Z,11.50
2023-02-11T15:45:11.749Z,28.13
2023-02-11T15:48:40.132Z,22.10
2023-02-11T15:52:02.917Z,13.07
2023-02-11T15:55:27.238Z,14.05
2023-02-11T15:58:52.183Z,13.27
2023-02-11T16:02:20.944Z,12.98
2023-02-11T16:09:07.770Z,13.18
2023-02-11T16:12:30.178Z,12.10
2023-02-11T16:16:04.743Z,13.43
2023-02-11T16:19:28.131Z,14.00
2023-02-11T16:22:49.841Z,34.30
2023-02-11T16:26:37.728Z,33.53
2023-02-11T16:29:59.566Z,14.73
2023-02-11T16:33:23.439Z,13.30
2023-02-11T16:36:46.604Z,14.07
2023-02-11T16:40:09.894Z,14.17
2023-02-11T16:43:31.590Z,14.87
2023-02-11T16:46:53.739Z,14.03
2023-02-11T16:50:24.287Z,13.33
2023-02-11T16:53:45.869Z,14.33
2023-02-11T16:57:30.332Z,14.40
2023-02-11T17:00:52.818Z,13.53
2023-02-11T17:04:27.498Z,13.97
2023-02-11T17:07:49.733Z,25.90
2023-02-11T17:11:11.537Z,17.87
2023-02-11T17:14:33.077Z,13.63
2023-02-11T17:17:56.899Z,15.43
2023-02-11T17:21:18.674Z,13.40
2023-02-11T17:24:45.218Z,14.47
2023-02-11T17:28:08.316Z,14.30
2023-02-11T17:31:30.116Z,41.53
2023-02-11T17:34:53.172Z,15.67
2023-02-11T17:38:18.074Z,14.40
2023-02-11T17:41:40.735Z,14.60
2023-02-11T17:45:02.378Z,14.73
2023-02-11T17:48:24.592Z,15.30
2023-02-11T17:51:48.795Z,15.63
2023-02-11T17:55:10.480Z,24.20
2023-02-11T17:58:32.287Z,21.50
2023-02-11T18:01:56.640Z,16.27
2023-02-11T18:05:20.572Z,15.63
2023-02-11T18:08:45.136Z,19.33
2023-02-11T18:12:10.792Z,16.23
2023-02-11T18:15:33.591Z,40.53
2023-02-11T18:19:00.958Z,17.03
2023-02-11T18:22:23.168Z,15.17
2023-02-11T18:25:47.059Z,15.93
2023-02-11T18:29:13.369Z,14.93
2023-02-11T18:32:37.492Z,15.97
2023-02-11T18:36:06.934Z,15.17
2023-02-11T18:39:31.329Z,15.67
2023-02-11T18:42:55.673Z,14.50
2023-02-11T18:46:20.424Z,15.60
2023-02-11T18:49:41.997Z,16.00
2023-02-11T18:53:03.603Z,15.37
2023-02-11T18:56:27.844Z,15.17
2023-02-11T18:59:50.713Z,15.33
2023-02-11T19:03:12.364Z,14.30
2023-02-11T19:06:36.588Z,15.10
2023-02-11T19:09:58.759Z,14.43
2023-02-11T19:13:20.396Z,15.47
2023-02-11T19:16:44.201Z,14.53
2023-02-11T19:20:06.852Z,14.70
2023-02-11T19:23:28.409Z,16.23
2023-02-11T19:26:55.393Z,16.40
2023-02-11T19:30:17.113Z,16.10
2023-02-11T19:33:38.700Z,14.90
2023-02-11T19:37:01.686Z,14.83
2023-02-11T19:40:26.082Z,15.17
2023-02-11T19:43:53.019Z,16.73
2023-02-11T19:47:14.815Z,40.53
2023-02-11T19:50:36.348Z,18.30
2023-02-11T19:53:58.602Z,17.20
2023-02-11T19:57:20.178Z,16.87
2023-02-11T20:00:44.250Z,16.40
2023-02-11T20:04:08.655Z,16.20
2023-02-11T20:07:32.760Z,17.57
2023-02-11T20:10:54.341Z,16.17
2023-02-11T20:14:16.107Z,15.73
2023-02-11T20:17:37.674Z,16.97
2023-02-11T20:21:01.737Z,15.60
2023-02-11T20:24:26.124Z,15.17
2023-02-11T20:27:47.707Z,14.77
2023-02-11T20:31:11.085Z,13.57
2023-02-11T20:34:33.209Z,14.40
2023-02-11T20:37:54.783Z,14.83
2023-02-11T20:41:25.448Z,13.80
2023-02-11T20:44:47.059Z,14.00
2023-02-11T20:48:08.727Z,15.30
2023-02-11T20:51:33.975Z,12.93
2023-02-11T20:54:57.778Z,13.97
2023-02-11T20:58:19.345Z,14.17
2023-02-11T21:01:44.490Z,13.50
2023-02-11T21:05:06.469Z,13.57
2023-02-11T21:08:28.112Z,13.50
2023-02-11T21:11:51.722Z,17.27
2023-02-11T21:15:15.906Z,16.30
2023-02-11T21:18:37.769Z,13.33
2023-02-11T21:22:00.959Z,13.40
2023-02-11T21:25:24.945Z,13.80
2023-02-11T21:28:46.645Z,12.87
2023-02-11T21:32:11.048Z,13.50
2023-02-11T21:35:37.273Z,13.73
2023-02-11T21:39:00.112Z,12.90
2023-02-11T21:42:24.070Z,12.93
2023-02-11T21:45:49.853Z,17.60
2023-02-11T21:49:11.500Z,14.60
2023-02-11T21:52:36.548Z,13.37
2023-02-11T21:56:10.112Z,12.93
2023-02-11T21:59:31.945Z,12.40
2023-02-11T22:02:53.657Z,12.80
2023-02-11T22:06:18.408Z,13.30
2023-02-11T22:09:43.061Z,11.97
2023-02-11T22:13:04.873Z,13.40
2023-02-11T22:16:27.489Z,12.43
2023-02-11T22:19:56.700Z,12.70
2023-02-11T22:23:18.286Z,12.93
2023-02-11T22:26:39.906Z,12.17
2023-02-11T22:30:02.700Z,17.13
2023-02-11T22:33:25.529Z,12.60
2023-02-11T22:36:47.413Z,12.83
2023-02-11T22:40:09.355Z,12.00
2023-02-11T22:43:31.400Z,12.20
2023-02-11T22:46:53.733Z,11.50
2023-02-11T22:50:17.587Z,12.10
2023-02-11T22:53:39.547Z,11.73
2023-02-11T22:57:01.301Z,12.13
2023-02-11T23:00:30.778Z,12.17
2023-02-11T23:03:54.683Z,11.67
2023-02-11T23:07:16.617Z,12.20
2023-02-11T23:10:41.925Z,11.97
2023-02-11T23:14:03.987Z,12.67
2023-02-11T23:17:26.242Z,12.17
2023-02-11T23:20:47.906Z,13.20
2023-02-11T23:24:16.807Z,11.63
2023-02-11T23:31:15.278Z,11.77
2023-02-11T23:34:39.157Z,12.40
2023-02-11T23:38:00.838Z,11.67
2023-02-11T23:41:25.376Z,11.77
2023-02-11T23:44:49.585Z,12.57
2023-02-11T23:48:13.713Z,12.47
2023-02-11T23:51:35.436Z,12.17
2023-02-11T23:54:57.009Z,13.43
2023-02-11T23:58:20.877Z,11.90
